Overview Statistics Trail Chart Weather Telemetry Raw packets
 

This is the latest recevied weather packets stored in our database for station/object KC0RKM-13. If no packets are shown the sender has not sent any weather packets the latest 10 day(s).

<< 43 44 45 46 47 48 49 >>
Time Temp. Humidity Pressure Rain* Wind** Luminosity Snow
1787887803 23.89° C 63% 1019.2 hPa 0 mm - - -
1787887203 23.89° C 63% 1018.9 hPa 0 mm - - -
1787886603 23.89° C 63% 1019.1 hPa 0 mm - - -
1787886012 23.89° C 63% 1019 hPa 0 mm - - -
1787885404 23.33° C 63% 1018.7 hPa 0 mm - - -
1787884804 23.33° C 63% 1018.8 hPa 0 mm - - -
1787884204 23.33° C 63% 1018.7 hPa 0 mm - - -
1787883610 24.44° C 61% 1018.2 hPa 0 mm - - -
1787883004 24.44° C 61% 1018.2 hPa 0 mm - - -
1787882404 24.44° C 61% 1018.2 hPa 0 mm - - -
1787881803 24.44° C 61% 1017.8 hPa 0 mm - - -
1787881204 25° C 58% 1017.6 hPa 0 mm - - -
1787880604 25° C 58% 1017.7 hPa 0 mm - - -
1787880004 26.67° C 53% 1017.2 hPa 0 mm - - -
1787879404 26.67° C 53% 1017.5 hPa 0 mm - - -
1787878804 26.67° C 53% 1017.5 hPa 0 mm - - -
1787878203 26.67° C 53% 1017.3 hPa 0 mm - - -
1787877603 26.67° C 53% 1017.4 hPa 0 mm - - -
1787877003 27.22° C 52% 1017.2 hPa 0 mm - - -
1787876403 27.78° C 52% 1017.3 hPa 0 mm - - -
1787875803 27.78° C 49% 1017.4 hPa 0 mm - - -
1787875203 28.33° C 49% 1017.2 hPa 0 mm - - -
1787874603 28.33° C 48% 1017.5 hPa 0 mm - - -
1787874004 28.89° C 44% 1017.4 hPa 0 mm - - -
1787873403 28.89° C 44% 1017.2 hPa 0 mm - - -

* Rain latest hour (hover to see other rain measurements)
** Current wind speed in m/s (hover to see current wind gust speed)